Time;durP1;ratioP1;P1;durP2;ratioP2;P2;SDS_P1;SDS_P2;PMS_P1;PMS_P2;Temp;Humidity;BMP_temperature;BMP_pressure;BME280_temperature;BME280_humidity;BME280_pressure;Samples;Min_cycle;Max_cycle;Signal;HPM_P1;HPM_P2
2021/01/02 00:01:17;;;;;;;;;;;;;;;2.57;100.00;100958.41;1804154;80;20147;-39
2021/01/02 00:03:48;;;;;;;;;;;;;;;2.60;100.00;100966.25;1803952;80;20155;-38
2021/01/02 00:06:36;;;;;;;;;;;;;;;2.60;100.00;100963.66;1803914;80;20503;-39
2021/01/02 00:09:04;;;;;;;;;;;;;;;2.62;100.00;100962.86;1803997;80;20201;-39
2021/01/02 00:11:54;;;;;;;;;;;;;;;2.64;100.00;100964.16;1803980;80;20166;-40
2021/01/02 00:14:44;;;;;;;;;;;;;;;2.68;100.00;100964.27;1828284;78;20183;-39
2021/01/02 00:17:21;;;;;;;;;;;;;;;2.70;100.00;100965.15;1836710;78;20184;-39
2021/01/02 00:20:07;;;;;;;;;;;;;;;2.73;100.00;100963.05;1836746;78;20137;-40
2021/01/02 00:22:54;;;;;;;;;;;;;;;2.73;100.00;100958.75;1836975;78;20303;-39
2021/01/02 00:25:25;;;;;;;;;;;;;;;2.74;100.00;100963.09;1836847;78;20236;-39
2021/01/02 00:27:56;;;;;;;;;;;;;;;2.75;100.00;100963.97;1833217;78;20236;-39
2021/01/02 00:30:38;;;;;;;;;;;;;;;2.76;100.00;100961.80;1836631;78;20141;-39
2021/01/02 00:33:19;;;;;;;;;;;;;;;2.77;100.00;100968.31;1780320;79;20235;-39
2021/01/02 00:35:52;;;;;;;;;;;;;;;2.78;100.00;100964.88;1803738;79;20412;-38
2021/01/02 00:38:18;;;;;;;;;;;;;;;2.79;100.00;100967.05;1803246;80;20146;-39
2021/01/02 00:40:46;;;;;;;;;;;;;;;2.80;100.00;100966.22;1804130;78;20137;-37
2021/01/02 00:43:13;;;;;;;;;;;;;;;2.82;100.00;100969.72;1782275;80;20275;-38
2021/01/02 00:45:41;;;;;;;;;;;;;;;2.83;100.00;100967.55;1804165;80;20235;-39
2021/01/02 00:48:10;;;;;;;;;;;;;;;2.83;100.00;100966.25;1803926;80;20263;-38
2021/01/02 00:50:38;;;;;;;;;;;;;;;2.86;100.00;100966.33;1804156;80;20216;-37
2021/01/02 00:53:15;;;;;;;;;;;;;;;2.89;100.00;100964.23;1804169;80;20201;-38
2021/01/02 00:56:07;;;;;;;;;;;;;;;2.90;100.00;100965.53;1804010;79;20173;-40
2021/01/02 00:58:58;;;;;;;;;;;;;;;2.90;100.00;100972.00;1804101;80;20140;-38
2021/01/02 01:01:33;;;;;;;;;;;;;;;2.92;100.00;100970.32;1801067;79;20165;-37
2021/01/02 01:04:06;;;;;;;;;;;;;;;2.95;100.00;100965.64;1740434;80;20387;-38
2021/01/02 01:06:36;;;;;;;;;;;;;;;2.98;100.00;100964.38;1803201;79;20438;-39
2021/01/02 01:09:04;;;;;;;;;;;;;;;3.01;100.00;100970.50;1804118;80;20271;-40
2021/01/02 01:11:36;;;;;;;;;;;;;;;3.05;100.00;100970.13;1804211;80;20133;-38
2021/01/02 01:14:04;;;;;;;;;;;;;;;3.10;100.00;100971.94;1804119;80;20184;-38
2021/01/02 01:16:41;;;;;;;;;;;;;;;3.12;100.00;100968.97;1804029;80;20425;-39
2021/01/02 01:19:10;;;;;;;;;;;;;;;3.16;100.00;100975.94;1803950;80;20297;-38
2021/01/02 01:21:40;;;;;;;;;;;;;;;3.18;100.00;100972.95;1804081;80;20380;-38
2021/01/02 01:24:22;;;;;;;;;;;;;;;3.18;100.00;100972.95;1803964;80;20166;-38
2021/01/02 01:27:04;;;;;;;;;;;;;;;3.18;100.00;100977.27;1804144;80;20225;-39
2021/01/02 01:29:44;;;;;;;;;;;;;;;3.19;100.00;100977.72;1804364;80;20233;-37
2021/01/02 01:32:12;;;;;;;;;;;;;;;3.20;100.00;100980.34;1804032;80;20230;-39
2021/01/02 01:34:40;;;;;;;;;;;;;;;3.24;100.00;100986.86;1804174;80;20301;-38
2021/01/02 01:37:07;;;;;;;;;;;;;;;3.25;100.00;100992.08;1784190;80;20297;-40
2021/01/02 01:39:36;;;;;;;;;;;;;;;3.27;100.00;100984.34;1804159;80;20408;-38
2021/01/02 01:42:05;;;;;;;;;;;;;;;3.29;100.00;100987.80;1804261;80;20178;-39
2021/01/02 01:44:56;;;;;;;;;;;;;;;3.31;100.00;100984.83;1804152;80;20380;-37
2021/01/02 01:47:37;;;;;;;;;;;;;;;3.33;100.00;100990.92;1803990;80;20158;-39
2021/01/02 01:50:17;;;;;;;;;;;;;;;3.33;100.00;100991.80;1804062;80;20154;-39
2021/01/02 01:53:07;;;;;;;;;;;;;;;3.34;100.00;100999.15;1803713;80;20170;-38
2021/01/02 01:55:54;;;;;;;;;;;;;;;3.36;100.00;100996.14;1803635;80;20147;-40
2021/01/02 01:58:36;;;;;;;;;;;;;;;3.38;100.00;101000.93;1803966;80;20167;-40
2021/01/02 02:01:04;;;;;;;;;;;;;;;3.37;100.00;100997.89;1785868;80;20198;-39
2021/01/02 02:03:44;;;;;;;;;;;;;;;3.34;100.00;101000.02;1804285;80;20126;-37
2021/01/02 02:06:24;;;;;;;;;;;;;;;3.33;100.00;100999.98;1749270;80;20139;-38
2021/01/02 02:08:57;;;;;;;;;;;;;;;3.31;100.00;100997.78;1803807;80;20206;-38
2021/01/02 02:11:35;;;;;;;;;;;;;;;3.30;100.00;101000.80;1804046;80;20215;-37
2021/01/02 02:14:12;;;;;;;;;;;;;;;3.30;100.00;101008.56;1803591;80;20151;-38
2021/01/02 02:16:41;;;;;;;;;;;;;;;3.29;100.00;101014.59;1794601;80;20413;-38
2021/01/02 02:19:15;;;;;;;;;;;;;;;3.31;100.00;101020.68;1804170;80;20277;-39
2021/01/02 02:21:43;;;;;;;;;;;;;;;3.32;100.00;101015.08;1803459;80;20290;-37
2021/01/02 02:26:50;;;;;;;;;;;;;;;3.36;100.00;101025.94;1912180;74;20149;-38
2021/01/02 02:29:22;;;;;;;;;;;;;;;3.33;100.00;101033.25;1872492;75;20132;-39
2021/01/02 02:31:50;;;;;;;;;;;;;;;3.31;100.00;101034.94;1902517;75;20175;-44
2021/01/02 02:34:18;;;;;;;;;;;;;;;3.31;100.00;101032.34;1903274;75;20410;-38
2021/01/02 02:36:46;;;;;;;;;;;;;;;3.32;100.00;101036.69;1903084;75;20133;-39
2021/01/02 02:39:14;;;;;;;;;;;;;;;3.35;100.00;101039.77;1903060;75;20199;-40
2021/01/02 02:41:50;;;;;;;;;;;;;;;3.34;100.00;101033.71;1903165;75;20401;-38
2021/01/02 02:44:26;;;;;;;;;;;;;;;3.36;100.00;101044.08;1888580;75;20129;-37
2021/01/02 02:46:57;;;;;;;;;;;;;;;3.38;100.00;101043.69;1868053;76;20152;-38
2021/01/02 02:49:28;;;;;;;;;;;;;;;3.40;100.00;101048.06;1867994;77;20386;-38
2021/01/02 02:52:00;;;;;;;;;;;;;;;3.41;100.00;101046.35;1867946;77;20121;-38
2021/01/02 02:54:27;;;;;;;;;;;;;;;3.41;100.00;101048.95;1867989;77;20410;-38
2021/01/02 02:56:55;;;;;;;;;;;;;;;3.40;100.00;101043.30;1867940;77;20180;-38
2021/01/02 02:59:26;;;;;;;;;;;;;;;3.40;100.00;101049.36;1867883;77;20388;-38
2021/01/02 03:01:53;;;;;;;;;;;;;;;3.41;100.00;101055.00;1867961;76;20268;-38
2021/01/02 03:04:21;;;;;;;;;;;;;;;3.42;100.00;101060.61;1867768;77;20146;-38
2021/01/02 03:06:49;;;;;;;;;;;;;;;3.44;100.00;101064.53;1868274;77;20182;-39
2021/01/02 03:09:17;;;;;;;;;;;;;;;3.44;100.00;101073.60;1847969;77;20181;-39
2021/01/02 03:11:44;;;;;;;;;;;;;;;3.42;100.00;101073.56;1872237;75;20168;-40
2021/01/02 03:14:14;;;;;;;;;;;;;;;3.40;100.00;101077.87;1868211;77;20132;-39
2021/01/02 03:16:41;;;;;;;;;;;;;;;3.41;100.00;101085.22;1867884;76;20196;-39
2021/01/02 03:19:09;;;;;;;;;;;;;;;3.42;100.00;101077.87;1868174;76;20303;-39
2021/01/02 03:21:37;;;;;;;;;;;;;;;3.40;100.00;101087.36;1868032;77;20121;-39
2021/01/02 03:24:06;;;;;;;;;;;;;;;3.39;100.00;101086.48;1867606;76;20260;-39
2021/01/02 03:26:34;;;;;;;;;;;;;;;3.38;100.00;101092.51;1867954;77;20161;-39
2021/01/02 03:29:02;;;;;;;;;;;;;;;3.37;100.00;101090.75;1868011;77;20143;-39
2021/01/02 03:31:29;;;;;;;;;;;;;;;3.37;100.00;101092.05;1868017;77;20240;-40
2021/01/02 03:33:57;;;;;;;;;;;;;;;3.37;100.00;101088.59;1867929;77;20154;-39
2021/01/02 03:36:26;;;;;;;;;;;;;;;3.37;100.00;101093.34;1867894;77;20161;-40
2021/01/02 03:38:55;;;;;;;;;;;;;;;3.40;100.00;101097.73;1867575;77;20373;-39
2021/01/02 03:41:24;;;;;;;;;;;;;;;3.41;100.00;101096.47;1867414;77;20443;-39
2021/01/02 03:43:52;;;;;;;;;;;;;;;3.42;100.00;101111.56;1867487;77;20229;-39
2021/01/02 03:46:22;;;;;;;;;;;;;;;3.43;100.00;101110.72;1867510;77;20353;-39
2021/01/02 03:48:50;;;;;;;;;;;;;;;3.44;100.00;101115.07;1834657;77;20173;-39
2021/01/02 03:51:24;;;;;;;;;;;;;;;3.45;100.00;101119.41;1867231;77;20225;-40
2021/01/02 03:53:52;;;;;;;;;;;;;;;3.46;100.00;101115.56;1867357;77;20225;-40
2021/01/02 03:56:20;;;;;;;;;;;;;;;3.47;100.00;101119.03;1867405;77;20131;-40
2021/01/02 03:58:52;;;;;;;;;;;;;;;3.48;100.00;101119.03;1867619;77;20193;-39
2021/01/02 04:01:19;;;;;;;;;;;;;;;3.51;100.00;101113.05;1867282;75;20171;-39
2021/01/02 04:03:47;;;;;;;;;;;;;;;3.53;100.00;101123.03;1867222;76;20121;-39
2021/01/02 04:06:23;;;;;;;;;;;;;;;3.54;100.00;101129.97;1867179;76;20250;-39
2021/01/02 04:08:51;;;;;;;;;;;;;;;3.56;100.00;101130.42;1867287;77;20137;-39
2021/01/02 04:11:18;;;;;;;;;;;;;;;3.59;100.00;101129.62;1867253;77;20176;-39
2021/01/02 04:13:46;;;;;;;;;;;;;;;3.58;100.00;101126.16;1867643;77;20232;-39
2021/01/02 04:16:14;;;;;;;;;;;;;;;3.58;100.00;101132.63;1867174;77;20172;-39
2021/01/02 04:18:42;;;;;;;;;;;;;;;3.57;100.00;101138.66;1867621;77;20287;-38
2021/01/02 04:21:09;;;;;;;;;;;;;;;3.56;100.00;101138.63;1846087;77;20310;-39
2021/01/02 04:23:37;;;;;;;;;;;;;;;3.57;100.00;101142.55;1846466;77;20129;-40
2021/01/02 04:26:05;;;;;;;;;;;;;;;3.63;100.00;101148.69;1867356;77;20418;-41
2021/01/02 04:28:33;;;;;;;;;;;;;;;3.70;100.00;101152.72;1867317;76;20140;-39
2021/01/02 04:31:00;;;;;;;;;;;;;;;3.77;100.00;101149.39;1867171;77;20219;-37
2021/01/02 04:33:29;;;;;;;;;;;;;;;3.88;100.00;101162.54;1867525;77;20446;-39
2021/01/02 04:35:56;;;;;;;;;;;;;;;3.96;100.00;101167.45;1867299;77;20133;-38
2021/01/02 04:38:24;;;;;;;;;;;;;;;4.01;100.00;101173.58;1867513;76;20183;-38
2021/01/02 04:40:58;;;;;;;;;;;;;;;4.06;100.00;101174.98;1867119;76;20160;-38
2021/01/02 04:43:27;;;;;;;;;;;;;;;4.09;100.00;101178.91;1867351;77;20144;-38
2021/01/02 04:45:55;;;;;;;;;;;;;;;4.10;100.00;101173.75;1867150;77;20168;-37
2021/01/02 04:48:23;;;;;;;;;;;;;;;4.12;100.00;101169.89;1867326;76;20211;-37
2021/01/02 04:50:51;;;;;;;;;;;;;;;4.11;100.00;101167.72;1872718;75;20141;-37
2021/01/02 04:53:19;;;;;;;;;;;;;;;4.13;100.00;101173.82;1832843;78;20267;-37
2021/01/02 04:55:47;;;;;;;;;;;;;;;4.18;100.00;101171.30;1794916;78;20228;-37
2021/01/02 04:58:15;;;;;;;;;;;;;;;4.20;100.00;101186.02;1832532;78;20215;-38
2021/01/02 05:00:43;;;;;;;;;;;;;;;4.19;100.00;101183.00;1832596;78;20166;-37
2021/01/02 05:03:11;;;;;;;;;;;;;;;4.20;100.00;101188.62;1803480;78;20231;-36
2021/01/02 05:05:39;;;;;;;;;;;;;;;4.20;100.00;101186.02;1832327;78;20184;-36
2021/01/02 05:08:07;;;;;;;;;;;;;;;4.17;100.00;101187.70;1832488;78;20164;-36
2021/01/02 05:10:35;;;;;;;;;;;;;;;4.14;100.00;101191.53;1832474;78;20235;-38
2021/01/02 05:13:12;;;;;;;;;;;;;;;4.12;100.00;101187.64;1832697;78;20227;-38
2021/01/02 05:15:40;;;;;;;;;;;;;;;4.11;100.00;101193.67;1832798;78;20157;-36
2021/01/02 05:18:09;;;;;;;;;;;;;;;4.08;100.00;101194.02;1832598;78;20191;-37
2021/01/02 05:20:36;;;;;;;;;;;;;;;4.02;100.00;101193.50;1794689;78;20149;-37
2021/01/02 05:23:10;;;;;;;;;;;;;;;3.98;100.00;101202.08;1850173;77;20193;-38
2021/01/02 05:25:38;;;;;;;;;;;;;;;3.96;100.00;101202.47;1866427;77;20166;-36
2021/01/02 05:28:17;;;;;;;;;;;;;;;3.96;100.00;101211.55;1866199;77;20194;-37
2021/01/02 05:30:45;;;;;;;;;;;;;;;3.95;100.00;101214.98;1866135;77;20285;-38
2021/01/02 05:33:13;;;;;;;;;;;;;;;3.94;100.00;101214.52;1855707;77;20137;-38
2021/01/02 05:35:45;;;;;;;;;;;;;;;3.94;100.00;101215.82;1835540;78;20154;-37
2021/01/02 05:38:21;;;;;;;;;;;;;;;3.93;100.00;101225.36;1835602;78;20172;-39
2021/01/02 05:40:56;;;;;;;;;;;;;;;3.93;100.00;101228.37;1835496;77;20198;-38
2021/01/02 05:43:26;;;;;;;;;;;;;;;3.94;100.00;101230.97;1835268;77;20186;-36
2021/01/02 05:45:54;;;;;;;;;;;;;;;3.97;100.00;101234.05;1835140;78;20296;-38
2021/01/02 05:48:25;;;;;;;;;;;;;;;3.97;100.00;101229.73;1835405;78;20170;-39
2021/01/02 05:50:58;;;;;;;;;;;;;;;3.97;100.00;101232.34;1865798;77;20202;-37
2021/01/02 05:53:34;;;;;;;;;;;;;;;3.96;100.00;101240.08;1864996;77;20229;-37
2021/01/02 05:56:06;;;;;;;;;;;;;;;3.91;100.00;101241.30;1796949;80;20271;-37
2021/01/02 05:58:46;;;;;;;;;;;;;;;3.92;100.00;101244.35;1797290;80;20309;-38
2021/01/02 06:01:15;;;;;;;;;;;;;;;3.92;100.00;101246.07;1827425;78;20169;-37
2021/01/02 06:03:43;;;;;;;;;;;;;;;3.91;100.00;101249.50;1808689;79;20144;-37
2021/01/02 06:06:14;;;;;;;;;;;;;;;3.90;100.00;101257.70;1829230;78;20160;-37
2021/01/02 06:08:44;;;;;;;;;;;;;;;3.89;100.00;101266.33;1828787;78;20192;-37
2021/01/02 06:11:14;;;;;;;;;;;;;;;3.90;100.00;101268.50;1827049;78;20410;-38
2021/01/02 06:13:44;;;;;;;;;;;;;;;3.90;100.00;101271.97;1826378;77;20228;-37
2021/01/02 06:16:12;;;;;;;;;;;;;;;3.92;100.00;101274.60;1820663;78;20331;-41
2021/01/02 06:18:41;;;;;;;;;;;;;;;3.95;100.00;101288.48;1816458;77;20168;-38
2021/01/02 06:21:16;;;;;;;;;;;;;;;3.97;100.00;101292.42;1800578;77;20179;-37
2021/01/02 06:26:52;;;;;;;;;;;;;;;4.07;100.00;101303.41;1891963;74;20176;-38
2021/01/02 06:29:20;;;;;;;;;;;;;;;4.05;100.00;101309.02;1862091;75;20192;-39
2021/01/02 06:31:49;;;;;;;;;;;;;;;4.05;100.00;101309.02;1864950;77;20193;-38
2021/01/02 06:34:17;;;;;;;;;;;;;;;4.08;100.00;101322.45;1878532;75;20140;-37
2021/01/02 06:36:44;;;;;;;;;;;;;;;4.10;100.00;101319.05;1874276;75;20132;-38
2021/01/02 06:39:23;;;;;;;;;;;;;;;4.12;100.00;101322.56;1866244;75;20263;-38
2021/01/02 06:41:56;;;;;;;;;;;;;;;4.15;100.00;101320.43;1902450;75;20136;-38
2021/01/02 06:44:44;;;;;;;;;;;;;;;4.16;100.00;101317.00;1902393;75;20461;-38
2021/01/02 06:47:22;;;;;;;;;;;;;;;4.19;100.00;101331.34;1883365;75;20584;-39
2021/01/02 06:49:53;;;;;;;;;;;;;;;4.24;100.00;101334.89;1902099;75;20159;-37
2021/01/02 06:52:34;;;;;;;;;;;;;;;4.27;100.00;101341.00;1875615;75;20427;-39
2021/01/02 06:55:23;;;;;;;;;;;;;;;4.31;100.00;101344.55;1880582;76;20187;-37
2021/01/02 06:57:51;;;;;;;;;;;;;;;4.34;100.00;101346.77;1871440;75;20209;-37
2021/01/02 07:00:27;;;;;;;;;;;;;;;4.37;100.00;101348.13;1867261;77;20402;-40
2021/01/02 07:02:56;;;;;;;;;;;;;;;4.39;100.00;101352.94;1867555;77;20120;-40
2021/01/02 07:05:44;;;;;;;;;;;;;;;4.40;100.00;101358.56;1834602;75;20183;-40
2021/01/02 07:08:42;;;;;;;;;;;;;;;4.42;100.00;101363.78;1821041;75;20160;-38
2021/01/02 07:11:33;;;;;;;;;;;;;;;4.43;100.00;101356.88;1902194;75;20155;-38
2021/01/02 07:14:12;;;;;;;;;;;;;;;4.43;100.00;101361.64;1869835;75;20180;-40
2021/01/02 07:16:49;;;;;;;;;;;;;;;4.43;100.00;101363.37;1867519;77;20173;-39
2021/01/02 07:19:32;;;;;;;;;;;;;;;4.43;100.00;101372.45;1854646;76;20421;-40
2021/01/02 07:22:04;;;;;;;;;;;;;;;4.41;100.00;101377.19;1867502;77;20203;-38
2021/01/02 07:24:55;;;;;;;;;;;;;;;4.41;100.00;101383.67;1868724;75;20425;-39
2021/01/02 07:27:30;;;;;;;;;;;;;;;4.44;100.00;101391.08;1875433;75;20575;-41
2021/01/02 07:30:02;;;;;;;;;;;;;;;4.44;100.00;101401.47;1877422;75;20144;-41
2021/01/02 07:32:32;;;;;;;;;;;;;;;4.41;100.00;101397.95;1872532;75;20180;-40
2021/01/02 07:35:01;;;;;;;;;;;;;;;4.42;100.00;101401.42;1881521;75;20126;-48
2021/01/02 07:37:35;;;;;;;;;;;;;;;4.45;100.00;101407.12;1867093;75;20158;-41
2021/01/02 07:40:15;;;;;;;;;;;;;;;4.47;100.00;101410.17;1871447;75;20178;-42
2021/01/02 07:42:52;;;;;;;;;;;;;;;4.48;100.00;101414.95;1873306;75;20344;-42
2021/01/02 07:45:27;;;;;;;;;;;;;;;4.49;100.00;101414.98;1874891;75;20165;-41
2021/01/02 07:47:56;;;;;;;;;;;;;;;4.50;100.00;101423.23;1881244;75;20184;-41
2021/01/02 07:50:26;;;;;;;;;;;;;;;4.54;100.00;101423.73;1876996;75;20307;-42
2021/01/02 07:52:55;;;;;;;;;;;;;;;4.55;100.00;101425.91;1874584;75;20191;-40
2021/01/02 07:55:27;;;;;;;;;;;;;;;4.56;100.00;101425.94;1872836;75;20529;-42
2021/01/02 07:57:56;;;;;;;;;;;;;;;4.57;100.00;101431.59;1878600;75;20180;-43
2021/01/02 08:00:25;;;;;;;;;;;;;;;4.58;100.00;101440.27;1853594;75;20390;-42
2021/01/02 08:02:54;;;;;;;;;;;;;;;4.57;100.00;101441.10;1840309;75;20154;-42
2021/01/02 08:05:23;;;;;;;;;;;;;;;4.55;100.00;101441.06;1863161;75;20290;-42
2021/01/02 08:07:59;;;;;;;;;;;;;;;4.55;100.00;101444.08;1877097;75;20125;-42
2021/01/02 08:10:28;;;;;;;;;;;;;;;4.54;100.00;101449.70;1869885;75;20155;-43
2021/01/02 08:12:57;;;;;;;;;;;;;;;4.55;100.00;101457.95;1871101;75;20228;-40
2021/01/02 08:15:31;;;;;;;;;;;;;;;4.55;100.00;101458.36;1870904;75;20202;-42
2021/01/02 08:18:02;;;;;;;;;;;;;;;4.55;100.00;101460.55;1879286;75;20268;-41
2021/01/02 08:20:30;;;;;;;;;;;;;;;4.55;100.00;101467.45;1870363;75;20390;-40
2021/01/02 08:22:58;;;;;;;;;;;;;;;4.53;100.00;101467.87;1872477;75;20159;-43
2021/01/02 08:25:27;;;;;;;;;;;;;;;4.53;100.00;101470.02;1886233;75;20190;-43
2021/01/02 08:27:55;;;;;;;;;;;;;;;4.54;100.00;101470.47;1867616;75;20239;-42
2021/01/02 08:30:23;;;;;;;;;;;;;;;4.55;100.00;101476.54;1850803;76;20285;-42
2021/01/02 08:32:53;;;;;;;;;;;;;;;4.55;100.00;101479.14;1870205;75;20181;-43
2021/01/02 08:35:23;;;;;;;;;;;;;;;4.55;100.00;101477.84;1873109;75;20142;-42
2021/01/02 08:37:50;;;;;;;;;;;;;;;4.55;100.00;101489.11;1870240;75;20217;-42
2021/01/02 08:40:19;;;;;;;;;;;;;;;4.56;100.00;101489.98;1867282;75;20285;-43
2021/01/02 08:42:47;;;;;;;;;;;;;;;4.55;100.00;101494.72;1868020;75;20162;-42
2021/01/02 08:45:26;;;;;;;;;;;;;;;4.55;100.00;101501.20;1877391;75;20181;-43
2021/01/02 08:48:05;;;;;;;;;;;;;;;4.53;100.00;101497.73;1872330;75;20178;-41
2021/01/02 08:50:33;;;;;;;;;;;;;;;4.49;100.00;101507.58;1871812;75;20156;-41
2021/01/02 08:53:03;;;;;;;;;;;;;;;4.46;100.00;101505.81;1871515;75;20213;-42
2021/01/02 08:55:31;;;;;;;;;;;;;;;4.45;100.00;101509.66;1875395;75;20219;-49
2021/01/02 08:58:00;;;;;;;;;;;;;;;4.43;100.00;101509.62;1872678;75;20619;-40
2021/01/02 09:00:29;;;;;;;;;;;;;;;4.43;100.00;101513.94;1872477;75;20223;-42
2021/01/02 09:03:06;;;;;;;;;;;;;;;4.40;100.00;101522.53;1873477;75;20420;-42
2021/01/02 09:05:36;;;;;;;;;;;;;;;4.39;100.00;101533.36;1868684;75;20182;-42
2021/01/02 09:08:09;;;;;;;;;;;;;;;4.38;100.00;101538.09;1875821;75;20194;-40
2021/01/02 09:10:38;;;;;;;;;;;;;;;4.36;100.00;101535.88;1870010;75;20145;-41
2021/01/02 09:13:24;;;;;;;;;;;;;;;4.36;100.00;101533.28;1869341;75;20287;-42
2021/01/02 09:16:01;;;;;;;;;;;;;;;4.34;100.00;101533.66;1874022;75;20148;-42
2021/01/02 09:18:32;;;;;;;;;;;;;;;4.36;100.00;101529.39;1870016;75;20184;-41
2021/01/02 09:21:12;;;;;;;;;;;;;;;4.39;100.00;101528.17;1871498;75;20302;-40
2021/01/02 09:23:42;;;;;;;;;;;;;;;4.41;100.00;101527.76;1865769;75;20291;-43
2021/01/02 09:26:25;;;;;;;;;;;;;;;4.45;100.00;101546.02;1872760;75;20186;-41
2021/01/02 09:28:55;;;;;;;;;;;;;;;4.45;100.00;101540.41;1869973;75;20195;-41
2021/01/02 09:31:23;;;;;;;;;;;;;;;4.50;100.00;101543.09;1870199;75;20186;-43
2021/01/02 09:33:53;;;;;;;;;;;;;;;4.50;100.00;101538.77;1867652;75;20601;-41
2021/01/02 09:36:22;;;;;;;;;;;;;;;4.48;100.00;101546.06;1872748;75;20468;-42
2021/01/02 09:38:51;;;;;;;;;;;;;;;4.45;100.00;101559.00;1874969;75;20465;-42
2021/01/02 09:41:21;;;;;;;;;;;;;;;4.43;100.00;101552.88;1869568;75;20178;-43
2021/01/02 09:43:49;;;;;;;;;;;;;;;4.38;100.00;101569.25;1880453;75;20453;-43
2021/01/02 09:46:18;;;;;;;;;;;;;;;4.36;100.00;101574.81;1867013;75;20179;-43
2021/01/02 09:48:50;;;;;;;;;;;;;;;4.35;100.00;101578.67;1874495;75;20206;-41
2021/01/02 09:51:18;;;;;;;;;;;;;;;4.33;100.00;101581.67;1832113;77;20581;-43
2021/01/02 09:53:45;;;;;;;;;;;;;;;4.29;100.00;101579.83;1810981;77;20204;-41
2021/01/02 09:56:14;;;;;;;;;;;;;;;4.26;100.00;101589.73;1833025;77;20483;-41
2021/01/02 09:58:43;;;;;;;;;;;;;;;4.22;100.00;101591.79;1791335;79;20814;-41
2021/01/02 10:01:14;;;;;;;;;;;;;;;4.20;100.00;101599.95;1807167;78;20218;-44
2021/01/02 10:03:41;;;;;;;;;;;;;;;4.17;100.00;101602.48;1810019;78;20283;-42
2021/01/02 10:06:10;;;;;;;;;;;;;;;4.13;100.00;101606.28;1803919;78;20318;-41
2021/01/02 10:08:38;;;;;;;;;;;;;;;4.07;100.00;101621.70;1804385;78;20461;-43
2021/01/02 10:11:06;;;;;;;;;;;;;;;4.04;100.00;101625.51;1808912;78;20524;-40
2021/01/02 10:13:34;;;;;;;;;;;;;;;3.99;100.00;101618.92;1812922;78;20180;-41
2021/01/02 10:16:04;;;;;;;;;;;;;;;3.96;100.00;101632.68;1806224;78;20456;-41
2021/01/02 10:18:32;;;;;;;;;;;;;;;3.94;100.00;101631.75;1805663;78;20250;-43
2021/01/02 10:21:03;;;;;;;;;;;;;;;3.96;100.00;101628.78;1812894;78;20183;-43
2021/01/02 10:26:51;;;;;;;;;;;;;;;4.04;100.00;101618.60;1901257;74;20208;-46
2021/01/02 10:29:19;;;;;;;;;;;;;;;4.03;100.00;101631.11;1866011;75;20209;-42
2021/01/02 10:31:52;;;;;;;;;;;;;;;4.03;100.00;101628.52;1855646;75;20451;-43
2021/01/02 10:34:23;;;;;;;;;;;;;;;4.04;100.00;101635.47;1872835;75;20153;-41
2021/01/02 10:39:41;;;;;;;;;;;;;;;4.06;100.00;101636.39;1849630;77;20459;-40
2021/01/02 10:42:26;;;;;;;;;;;;;;;4.07;100.00;101639.42;1812628;75;20152;-43
2021/01/02 10:44:54;;;;;;;;;;;;;;;4.10;100.00;101642.11;1874075;75;20490;-40
2021/01/02 10:47:25;;;;;;;;;;;;;;;4.10;100.00;101646.00;1842799;75;20172;-43
2021/01/02 10:49:52;;;;;;;;;;;;;;;4.12;100.00;101633.95;1870811;75;20277;-42
2021/01/02 10:52:24;;;;;;;;;;;;;;;4.15;100.00;101640.49;1869422;75;20467;-40
2021/01/02 10:54:52;;;;;;;;;;;;;;;4.17;100.00;101634.05;1872611;75;20166;-40
2021/01/02 10:57:28;;;;;;;;;;;;;;;4.23;100.00;101644.58;1875878;75;20163;-44
2021/01/02 11:00:07;;;;;;;;;;;;;;;4.25;100.00;101650.27;1858490;75;20213;-44
2021/01/02 11:02:37;;;;;;;;;;;;;;;4.31;100.00;101653.44;1837203;77;20232;-43
2021/01/02 11:05:09;;;;;;;;;;;;;;;4.32;100.00;101653.89;1814449;76;20228;-42
2021/01/02 11:07:37;;;;;;;;;;;;;;;4.35;100.00;101656.13;1835145;77;20457;-43
2021/01/02 11:10:07;;;;;;;;;;;;;;;4.35;100.00;101656.13;1817853;77;20190;-41
2021/01/02 11:12:35;;;;;;;;;;;;;;;4.37;100.00;101666.55;1840513;77;20477;-40
2021/01/02 11:15:07;;;;;;;;;;;;;;;4.40;100.00;101666.61;1835765;77;20544;-42
2021/01/02 11:17:35;;;;;;;;;;;;;;;4.41;100.00;101670.55;1842240;77;20196;-44
2021/01/02 11:20:04;;;;;;;;;;;;;;;4.44;100.00;101676.67;1839377;77;20164;-41
2021/01/02 11:22:33;;;;;;;;;;;;;;;4.44;100.00;101675.37;1806035;78;20184;-42
2021/01/02 11:25:05;;;;;;;;;;;;;;;4.41;100.00;101675.74;1820027;78;20294;-42
2021/01/02 11:27:32;;;;;;;;;;;;;;;4.41;100.00;101680.94;1816616;77;20164;-41
2021/01/02 11:30:02;;;;;;;;;;;;;;;4.40;100.00;101680.89;1820326;78;20222;-43
2021/01/02 11:32:32;;;;;;;;;;;;;;;4.37;100.00;101684.31;1820131;77;20420;-41
2021/01/02 11:35:01;;;;;;;;;;;;;;;4.36;100.00;101693.35;1821025;78;20241;-43
2021/01/02 11:37:30;;;;;;;;;;;;;;;4.35;100.00;101693.77;1809266;78;20237;-43
2021/01/02 11:40:00;;;;;;;;;;;;;;;4.35;100.00;101698.08;1826647;77;20206;-40
2021/01/02 11:42:28;;;;;;;;;;;;;;;4.35;100.00;101696.78;1802616;77;20279;-42
2021/01/02 11:44:56;;;;;;;;;;;;;;;4.32;100.00;101695.02;1830659;77;20227;-44
2021/01/02 11:47:24;;;;;;;;;;;;;;;4.31;100.00;101707.53;1832378;77;20204;-42
2021/01/02 11:49:52;;;;;;;;;;;;;;;4.32;99.90;101709.70;1832733;77;20949;-41
2021/01/02 11:52:20;;;;;;;;;;;;;;;4.32;99.75;101713.59;1829838;77;20215;-41
2021/01/02 11:54:48;;;;;;;;;;;;;;;4.31;99.67;101715.31;1834376;77;20204;-43
2021/01/02 11:57:15;;;;;;;;;;;;;;;4.31;99.52;101715.31;1800530;78;20202;-42
2021/01/02 11:59:43;;;;;;;;;;;;;;;4.30;99.45;101720.45;1812319;77;20196;-42
2021/01/02 12:02:13;;;;;;;;;;;;;;;4.31;99.40;101728.30;1819857;78;20232;-42
2021/01/02 12:04:43;;;;;;;;;;;;;;;4.29;99.38;101727.78;1809239;77;20594;-41
2021/01/02 12:07:12;;;;;;;;;;;;;;;4.28;99.32;101733.81;1823738;77;20224;-42
2021/01/02 12:09:40;;;;;;;;;;;;;;;4.28;99.30;101738.58;1797857;78;20306;-41
2021/01/02 12:12:09;;;;;;;;;;;;;;;4.25;99.29;101737.22;1821744;78;20177;-42
2021/01/02 12:14:36;;;;;;;;;;;;;;;4.24;99.32;101741.07;1818379;78;20217;-41
2021/01/02 12:17:09;;;;;;;;;;;;;;;4.23;99.31;101744.50;1823411;78;20206;-44
2021/01/02 12:19:36;;;;;;;;;;;;;;;4.20;99.28;101749.63;1823774;78;20439;-42
2021/01/02 12:22:06;;;;;;;;;;;;;;;4.17;99.31;101753.42;1810532;78;20371;-42
2021/01/02 12:24:34;;;;;;;;;;;;;;;4.15;99.35;101754.67;1812441;78;20226;-41
2021/01/02 12:27:06;;;;;;;;;;;;;;;4.14;99.34;101750.73;1763333;78;20528;-42
2021/01/02 12:29:34;;;;;;;;;;;;;;;4.13;99.32;101764.58;1811020;78;20204;-41
2021/01/02 12:32:06;;;;;;;;;;;;;;;4.11;99.24;101762.35;1806840;78;20511;-43
2021/01/02 12:34:36;;;;;;;;;;;;;;;4.09;99.20;101770.09;1807327;78;20200;-42
2021/01/02 12:37:08;;;;;;;;;;;;;;;4.07;99.19;101766.56;1835701;77;20188;-41
2021/01/02 12:39:39;;;;;;;;;;;;;;;4.06;99.14;101771.73;1818514;78;20141;-41
2021/01/02 12:42:07;;;;;;;;;;;;;;;4.04;99.18;101773.41;1816115;78;20702;-43
2021/01/02 12:44:34;;;;;;;;;;;;;;;4.03;99.24;101783.31;1796211;78;20168;-40
2021/01/02 12:47:11;;;;;;;;;;;;;;;4.02;99.23;101783.73;1813537;78;20192;-43
2021/01/02 12:49:44;;;;;;;;;;;;;;;3.97;99.20;101784.91;1818118;77;20200;-42
2021/01/02 12:52:12;;;;;;;;;;;;;;;3.96;99.21;101790.05;1760067;77;20225;-43
2021/01/02 12:54:40;;;;;;;;;;;;;;;3.93;99.16;101796.47;1834949;77;20297;-42
2021/01/02 12:57:09;;;;;;;;;;;;;;;3.91;99.14;101800.31;1805847;78;20127;-41
2021/01/02 12:59:38;;;;;;;;;;;;;;;3.90;99.17;101808.05;1805841;78;20313;-43
2021/01/02 13:02:08;;;;;;;;;;;;;;;3.88;99.29;101807.11;1809128;78;20172;-40
2021/01/02 13:04:35;;;;;;;;;;;;;;;3.87;99.32;101810.57;1810818;78;20217;-44
2021/01/02 13:07:05;;;;;;;;;;;;;;;3.83;99.32;101816.07;1810566;78;20846;-44
2021/01/02 13:09:34;;;;;;;;;;;;;;;3.83;99.20;101822.97;1808442;78;20656;-40
2021/01/02 13:12:07;;;;;;;;;;;;;;;3.79;99.06;101819.84;1810088;78;20184;-41